createdAt,value
2018-03-08T00:00:02.044Z,100.00
2018-03-08T00:02:29.740Z,100.00
2018-03-08T00:04:57.433Z,100.00
2018-03-08T00:07:25.070Z,100.00
2018-03-08T00:09:52.766Z,100.00
2018-03-08T00:12:20.406Z,100.00
2018-03-08T00:14:48.081Z,100.00
2018-03-08T00:17:15.904Z,100.00
2018-03-08T00:19:43.538Z,100.00
2018-03-08T00:22:11.226Z,100.00
2018-03-08T00:24:38.864Z,100.00
2018-03-08T00:27:06.552Z,100.00
2018-03-08T00:29:34.214Z,100.00
2018-03-08T00:32:01.892Z,100.00
2018-03-08T00:34:29.526Z,100.00
2018-03-08T00:36:58.125Z,100.00
2018-03-08T00:39:25.760Z,100.00
2018-03-08T00:41:53.484Z,100.00
2018-03-08T00:44:21.145Z,100.00
2018-03-08T00:46:48.837Z,100.00
2018-03-08T00:49:17.346Z,100.00
2018-03-08T00:51:45.033Z,100.00
2018-03-08T00:54:12.676Z,100.00
2018-03-08T00:56:40.352Z,100.00
2018-03-08T00:59:07.987Z,100.00
2018-03-08T01:01:36.369Z,100.00
2018-03-08T01:04:04.020Z,100.00
2018-03-08T01:06:31.703Z,100.00
2018-03-08T01:08:59.336Z,100.00
2018-03-08T01:11:27.015Z,100.00
2018-03-08T01:13:54.645Z,100.00
2018-03-08T01:16:22.332Z,100.00
2018-03-08T01:18:50.076Z,100.00
2018-03-08T01:21:17.710Z,100.00
2018-03-08T01:23:45.477Z,100.00
2018-03-08T01:26:13.173Z,100.00
2018-03-08T01:28:40.815Z,100.00
2018-03-08T01:31:08.640Z,100.00
2018-03-08T01:33:36.412Z,100.00
2018-03-08T01:36:04.080Z,100.00
2018-03-08T01:38:31.766Z,100.00
2018-03-08T01:40:59.408Z,100.00
2018-03-08T01:43:27.145Z,100.00
2018-03-08T01:45:54.796Z,100.00
2018-03-08T01:48:22.481Z,100.00
2018-03-08T01:50:50.258Z,100.00
2018-03-08T01:53:17.953Z,100.00
2018-03-08T01:55:45.716Z,100.00
2018-03-08T01:58:13.426Z,100.00
2018-03-08T02:00:41.052Z,100.00
2018-03-08T02:03:08.752Z,100.00
2018-03-08T02:05:36.393Z,100.00
2018-03-08T02:08:04.026Z,100.00
2018-03-08T02:10:31.702Z,100.00
2018-03-08T02:12:59.385Z,100.00
2018-03-08T02:15:27.043Z,100.00
2018-03-08T02:17:54.732Z,100.00
2018-03-08T02:20:22.415Z,100.00
2018-03-08T02:22:50.131Z,100.00
2018-03-08T02:25:17.808Z,100.00
2018-03-08T02:27:45.504Z,100.00
2018-03-08T02:30:13.190Z,100.00
2018-03-08T02:32:40.833Z,100.00
2018-03-08T02:35:08.582Z,100.00
2018-03-08T02:37:36.217Z,100.00
2018-03-08T02:40:03.956Z,100.00
2018-03-08T02:42:31.601Z,100.00
2018-03-08T02:44:59.243Z,100.00
2018-03-08T02:47:27.716Z,100.00
2018-03-08T02:49:55.424Z,100.00
2018-03-08T02:52:23.052Z,100.00
2018-03-08T02:54:50.728Z,100.00
2018-03-08T02:57:18.375Z,100.00
2018-03-08T02:59:47.045Z,100.00
2018-03-08T03:02:14.754Z,100.00
2018-03-08T03:04:42.438Z,100.00
2018-03-08T03:07:10.151Z,100.00
2018-03-08T03:09:37.833Z,100.00
2018-03-08T03:12:05.502Z,100.00
2018-03-08T03:14:33.178Z,100.00
2018-03-08T03:17:00.863Z,100.00
2018-03-08T03:19:28.507Z,100.00
2018-03-08T03:21:56.196Z,100.00
2018-03-08T03:24:23.825Z,100.00
2018-03-08T03:26:51.523Z,100.00
2018-03-08T03:29:19.171Z,100.00
2018-03-08T03:31:46.964Z,100.00
2018-03-08T03:34:14.653Z,100.00
2018-03-08T03:36:42.292Z,100.00
2018-03-08T03:39:09.970Z,100.00
2018-03-08T03:41:37.653Z,100.00
2018-03-08T03:44:05.353Z,100.00
2018-03-08T03:46:33.006Z,100.00
2018-03-08T03:49:00.683Z,100.00
2018-03-08T03:51:28.369Z,100.00
2018-03-08T03:53:56.052Z,100.00
2018-03-08T03:56:23.736Z,100.00
2018-03-08T03:58:51.491Z,100.00
2018-03-08T04:01:19.175Z,100.00
2018-03-08T04:03:46.992Z,100.00
2018-03-08T04:06:14.688Z,100.00
2018-03-08T04:08:42.360Z,100.00
2018-03-08T04:11:10.163Z,100.00
2018-03-08T04:13:37.810Z,100.00
2018-03-08T04:16:05.501Z,100.00
2018-03-08T04:18:33.145Z,100.00
2018-03-08T04:21:00.834Z,100.00
2018-03-08T04:23:28.469Z,100.00
2018-03-08T04:25:56.186Z,100.00
2018-03-08T04:28:23.830Z,100.00
2018-03-08T04:30:51.628Z,100.00
2018-03-08T04:33:24.366Z,100.00
2018-03-08T04:35:52.200Z,100.00
2018-03-08T04:38:19.878Z,100.00
2018-03-08T04:40:47.655Z,100.00
2018-03-08T04:43:15.338Z,100.00
2018-03-08T04:45:42.968Z,100.00
2018-03-08T04:48:10.811Z,100.00
2018-03-08T04:50:38.466Z,100.00
2018-03-08T04:53:06.151Z,100.00
2018-03-08T04:55:33.913Z,100.00
2018-03-08T04:58:01.604Z,100.00
2018-03-08T05:00:29.275Z,100.00
2018-03-08T05:02:56.968Z,100.00
2018-03-08T05:05:24.650Z,100.00
2018-03-08T05:07:52.344Z,100.00
2018-03-08T05:10:19.987Z,100.00
2018-03-08T05:12:47.750Z,100.00
2018-03-08T05:15:15.411Z,100.00
2018-03-08T05:17:43.106Z,100.00
2018-03-08T05:20:10.871Z,100.00
2018-03-08T05:22:38.590Z,100.00
2018-03-08T05:25:06.278Z,100.00
2018-03-08T05:27:33.998Z,100.00
2018-03-08T05:30:01.664Z,100.00
2018-03-08T05:32:29.359Z,100.00
2018-03-08T05:34:57.011Z,100.00
2018-03-08T05:37:24.712Z,100.00
2018-03-08T05:39:52.547Z,100.00
2018-03-08T05:42:20.200Z,100.00
2018-03-08T05:44:47.892Z,100.00
2018-03-08T05:47:15.528Z,100.00
2018-03-08T05:49:43.260Z,100.00
2018-03-08T05:52:10.908Z,100.00
2018-03-08T05:54:38.592Z,100.00
2018-03-08T05:57:06.239Z,100.00
2018-03-08T05:59:34.884Z,100.00
2018-03-08T06:02:02.656Z,100.00
2018-03-08T06:04:30.356Z,100.00
2018-03-08T06:06:58.059Z,100.00
2018-03-08T06:09:25.763Z,100.00
2018-03-08T06:11:53.468Z,100.00
2018-03-08T06:14:21.507Z,100.00
2018-03-08T06:16:49.478Z,100.00
2018-03-08T06:19:17.331Z,100.00
2018-03-08T06:21:45.220Z,100.00
2018-03-08T06:24:13.097Z,100.00
2018-03-08T06:26:41.040Z,100.00
2018-03-08T06:29:08.706Z,100.00
2018-03-08T06:31:36.417Z,100.00
2018-03-08T06:34:04.096Z,100.00
2018-03-08T06:36:31.866Z,100.00
2018-03-08T06:38:59.703Z,100.00
2018-03-08T06:41:27.435Z,100.00
2018-03-08T06:43:56.578Z,100.00
2018-03-08T06:46:24.422Z,100.00
2018-03-08T06:48:52.287Z,100.00
2018-03-08T06:51:20.087Z,100.00
2018-03-08T06:53:47.863Z,100.00
2018-03-08T06:56:15.593Z,100.00
2018-03-08T06:58:43.427Z,100.00
2018-03-08T07:01:11.123Z,100.00
2018-03-08T07:03:38.782Z,100.00
2018-03-08T07:06:06.626Z,100.00
2018-03-08T07:08:34.532Z,100.00
2018-03-08T07:11:02.378Z,100.00
2018-03-08T07:13:30.215Z,100.00
2018-03-08T07:15:58.090Z,100.00
2018-03-08T07:18:25.866Z,100.00
2018-03-08T07:20:53.698Z,100.00
2018-03-08T07:23:21.396Z,100.00
2018-03-08T07:25:49.079Z,100.00
2018-03-08T07:28:16.743Z,100.00
2018-03-08T07:30:44.502Z,100.00
2018-03-08T07:33:12.173Z,100.00
2018-03-08T07:35:39.981Z,100.00
2018-03-08T07:38:07.743Z,100.00
2018-03-08T07:40:35.570Z,100.00
2018-03-08T07:43:03.325Z,100.00
2018-03-08T07:45:31.161Z,100.00
2018-03-08T07:47:58.983Z,100.00
2018-03-08T07:50:26.695Z,100.00
2018-03-08T07:52:54.498Z,100.00
2018-03-08T07:55:22.250Z,100.00
2018-03-08T07:57:50.030Z,100.00
2018-03-08T08:00:17.789Z,100.00
2018-03-08T08:02:45.595Z,100.00
2018-03-08T08:05:25.033Z,100.00
2018-03-08T08:08:04.390Z,100.00
2018-03-08T08:10:32.238Z,100.00
2018-03-08T08:13:00.096Z,100.00
2018-03-08T08:15:27.844Z,100.00
2018-03-08T08:17:55.716Z,100.00
2018-03-08T08:20:23.499Z,100.00
2018-03-08T08:22:51.378Z,100.00
2018-03-08T08:25:19.191Z,100.00
2018-03-08T08:27:46.978Z,100.00
2018-03-08T08:30:14.755Z,100.00
2018-03-08T08:32:42.570Z,100.00
2018-03-08T08:35:10.314Z,100.00
2018-03-08T08:37:38.142Z,100.00
2018-03-08T08:40:05.951Z,100.00
2018-03-08T08:42:33.827Z,100.00
2018-03-08T08:45:01.646Z,100.00
2018-03-08T08:47:29.483Z,100.00
2018-03-08T08:49:57.237Z,100.00
2018-03-08T08:52:25.263Z,100.00
2018-03-08T08:54:53.047Z,100.00
2018-03-08T08:57:21.676Z,100.00
2018-03-08T08:59:49.542Z,100.00
2018-03-08T09:02:17.287Z,100.00
2018-03-08T09:04:45.142Z,100.00
2018-03-08T09:07:12.959Z,100.00
2018-03-08T09:09:40.775Z,100.00
2018-03-08T09:12:08.515Z,100.00
2018-03-08T09:14:36.585Z,100.00
2018-03-08T09:17:04.355Z,100.00
2018-03-08T09:19:32.227Z,100.00
2018-03-08T09:21:59.971Z,100.00
2018-03-08T09:24:27.790Z,100.00
2018-03-08T09:26:55.566Z,100.00
2018-03-08T09:29:23.395Z,100.00
2018-03-08T09:31:51.271Z,100.00
2018-03-08T09:34:19.150Z,100.00
2018-03-08T09:36:46.829Z,100.00
2018-03-08T09:39:14.576Z,100.00
2018-03-08T09:41:42.287Z,100.00
2018-03-08T09:44:10.032Z,100.00
2018-03-08T09:46:37.769Z,100.00
2018-03-08T09:49:05.456Z,100.00
2018-03-08T09:51:33.152Z,100.00
2018-03-08T09:54:00.858Z,100.00
2018-03-08T09:56:28.757Z,100.00
2018-03-08T09:58:56.445Z,100.00
2018-03-08T10:01:24.184Z,100.00
2018-03-08T10:03:51.868Z,100.00
2018-03-08T10:06:19.673Z,100.00
2018-03-08T10:08:47.422Z,100.00
2018-03-08T10:11:15.109Z,100.00
2018-03-08T10:13:42.879Z,100.00
2018-03-08T10:16:10.607Z,100.00
2018-03-08T10:18:38.354Z,100.00
2018-03-08T10:21:06.136Z,100.00
2018-03-08T10:23:33.858Z,100.00
2018-03-08T10:26:01.643Z,100.00
2018-03-08T10:28:29.309Z,100.00
2018-03-08T10:30:56.999Z,100.00
2018-03-08T10:33:24.758Z,100.00
2018-03-08T10:35:52.458Z,100.00
2018-03-08T10:38:20.371Z,100.00
2018-03-08T10:40:48.179Z,100.00
2018-03-08T10:43:15.896Z,100.00
2018-03-08T10:45:43.566Z,100.00
2018-03-08T10:48:11.290Z,100.00
2018-03-08T10:50:38.982Z,100.00
2018-03-08T10:53:06.829Z,100.00
2018-03-08T10:55:34.602Z,100.00
2018-03-08T10:58:02.378Z,100.00
2018-03-08T11:00:35.788Z,100.00
2018-03-08T11:03:06.981Z,100.00
2018-03-08T11:05:40.058Z,100.00
2018-03-08T11:08:07.881Z,100.00
2018-03-08T11:10:35.709Z,100.00
2018-03-08T11:13:03.444Z,100.00
2018-03-08T11:15:31.272Z,100.00
2018-03-08T11:17:59.209Z,100.00
2018-03-08T11:20:26.886Z,100.00
2018-03-08T11:22:54.569Z,100.00
2018-03-08T11:25:22.279Z,100.00
2018-03-08T11:27:49.990Z,100.00
2018-03-08T11:30:17.687Z,100.00
2018-03-08T11:32:45.356Z,100.00
2018-03-08T11:35:13.085Z,100.00
2018-03-08T11:37:40.915Z,100.00
2018-03-08T11:40:08.614Z,100.00
2018-03-08T11:42:36.442Z,100.00
2018-03-08T11:45:04.215Z,100.00
2018-03-08T11:47:31.891Z,100.00
2018-03-08T11:49:59.666Z,100.00
2018-03-08T11:52:27.386Z,100.00
2018-03-08T11:54:55.196Z,100.00
2018-03-08T11:57:22.990Z,100.00
2018-03-08T11:59:50.948Z,100.00
2018-03-08T12:02:18.779Z,100.00
2018-03-08T12:04:46.540Z,100.00
2018-03-08T12:07:14.343Z,100.00
2018-03-08T12:09:42.014Z,100.00
2018-03-08T12:12:09.850Z,100.00
2018-03-08T12:14:37.642Z,100.00
2018-03-08T12:17:05.432Z,100.00
2018-03-08T12:19:33.154Z,100.00
2018-03-08T12:22:00.999Z,100.00
2018-03-08T12:24:28.779Z,100.00
2018-03-08T12:26:56.563Z,100.00
2018-03-08T12:29:24.244Z,100.00
2018-03-08T12:31:52.119Z,100.00
2018-03-08T12:34:19.802Z,100.00
2018-03-08T12:36:47.530Z,100.00
2018-03-08T12:39:15.231Z,100.00
2018-03-08T12:41:43.021Z,100.00
2018-03-08T12:44:10.733Z,100.00
2018-03-08T12:46:38.386Z,100.00
2018-03-08T12:49:06.125Z,100.00
2018-03-08T12:51:33.892Z,100.00
2018-03-08T12:54:01.610Z,100.00
2018-03-08T12:56:29.411Z,100.00
2018-03-08T12:58:57.243Z,100.00
2018-03-08T13:01:24.889Z,100.00
2018-03-08T13:03:54.118Z,100.00
2018-03-08T13:06:22.007Z,100.00
2018-03-08T13:08:49.741Z,100.00
2018-03-08T13:11:17.438Z,100.00
2018-03-08T13:13:45.139Z,100.00
2018-03-08T13:16:12.978Z,100.00
2018-03-08T13:18:40.697Z,100.00
2018-03-08T13:21:08.364Z,100.00
2018-03-08T13:23:36.198Z,100.00
2018-03-08T13:26:03.967Z,100.00
2018-03-08T13:28:31.811Z,100.00
2018-03-08T13:30:59.475Z,100.00
2018-03-08T13:33:27.218Z,100.00
2018-03-08T13:35:55.047Z,100.00
2018-03-08T13:38:22.806Z,100.00
2018-03-08T13:40:50.669Z,100.00
2018-03-08T13:43:18.470Z,100.00
2018-03-08T13:45:46.309Z,100.00
2018-03-08T13:48:14.170Z,100.00
2018-03-08T13:50:41.962Z,100.00
2018-03-08T13:53:09.642Z,100.00
2018-03-08T13:55:37.354Z,100.00
2018-03-08T13:58:05.054Z,100.00
2018-03-08T14:00:32.714Z,100.00
2018-03-08T14:03:00.563Z,100.00
2018-03-08T14:05:28.302Z,100.00
2018-03-08T14:07:56.151Z,100.00
2018-03-08T14:10:23.883Z,100.00
2018-03-08T14:12:51.726Z,100.00
2018-03-08T14:15:19.478Z,100.00
2018-03-08T14:17:47.229Z,100.00
2018-03-08T14:20:15.086Z,100.00
2018-03-08T14:22:42.923Z,100.00
2018-03-08T14:25:10.743Z,100.00
2018-03-08T14:27:38.487Z,100.00
2018-03-08T14:30:06.350Z,100.00
2018-03-08T14:32:34.183Z,100.00
2018-03-08T14:35:01.887Z,100.00
2018-03-08T14:37:29.628Z,100.00
2018-03-08T14:39:57.344Z,100.00
2018-03-08T14:42:25.039Z,100.00
2018-03-08T14:44:52.724Z,99.41
2018-03-08T14:47:20.454Z,99.37
2018-03-08T14:49:48.283Z,98.96
2018-03-08T14:52:16.006Z,98.57
2018-03-08T14:54:43.874Z,98.32
2018-03-08T14:57:11.718Z,97.75
2018-03-08T14:59:39.480Z,97.96
2018-03-08T15:02:07.386Z,98.35
2018-03-08T15:04:35.053Z,98.63
2018-03-08T15:07:02.801Z,98.45
2018-03-08T15:09:30.497Z,98.14
2018-03-08T15:11:58.182Z,97.69
2018-03-08T15:14:25.888Z,97.91
2018-03-08T15:16:53.706Z,98.42
2018-03-08T15:19:21.454Z,99.14
2018-03-08T15:21:49.170Z,100.00
2018-03-08T15:24:16.894Z,100.00
2018-03-08T15:29:21.118Z,100.00
2018-03-08T15:31:48.778Z,100.00
2018-03-08T15:34:16.588Z,100.00
2018-03-08T15:36:44.313Z,100.00
2018-03-08T15:39:13.225Z,100.00
2018-03-08T15:41:41.008Z,100.00
2018-03-08T15:44:08.836Z,100.00
2018-03-08T15:46:36.591Z,100.00
2018-03-08T15:49:04.381Z,100.00
2018-03-08T15:51:32.190Z,100.00
2018-03-08T15:53:59.936Z,100.00
2018-03-08T15:56:27.631Z,100.00
2018-03-08T15:58:55.426Z,100.00
2018-03-08T16:01:23.237Z,100.00
2018-03-08T16:03:50.903Z,100.00
2018-03-08T16:06:25.382Z,100.00
2018-03-08T16:09:01.011Z,100.00
2018-03-08T16:11:28.804Z,100.00
2018-03-08T16:13:56.525Z,100.00
2018-03-08T16:16:24.247Z,100.00
2018-03-08T16:18:51.974Z,100.00
2018-03-08T16:21:19.687Z,100.00
2018-03-08T16:23:47.483Z,100.00
2018-03-08T16:26:15.305Z,100.00
2018-03-08T16:28:43.178Z,100.00
2018-03-08T16:31:10.911Z,100.00
2018-03-08T16:33:38.726Z,100.00
2018-03-08T16:36:06.491Z,100.00
2018-03-08T16:38:34.222Z,100.00
2018-03-08T16:41:01.935Z,100.00
2018-03-08T16:43:29.626Z,100.00
2018-03-08T16:45:57.374Z,100.00
2018-03-08T16:48:25.070Z,100.00
2018-03-08T16:50:52.734Z,100.00
2018-03-08T16:53:20.514Z,100.00
2018-03-08T16:55:48.238Z,100.00
2018-03-08T16:58:15.966Z,100.00
2018-03-08T17:00:43.632Z,100.00
2018-03-08T17:03:11.358Z,100.00
2018-03-08T17:05:39.911Z,100.00
2018-03-08T17:08:07.642Z,100.00
2018-03-08T17:10:35.378Z,100.00
2018-03-08T17:13:03.078Z,100.00
2018-03-08T17:15:30.799Z,100.00
2018-03-08T17:17:58.510Z,100.00
2018-03-08T17:20:26.294Z,100.00
2018-03-08T17:22:53.946Z,100.00
2018-03-08T17:25:21.697Z,100.00
2018-03-08T17:27:49.377Z,100.00
2018-03-08T17:30:17.139Z,100.00
2018-03-08T17:32:44.856Z,100.00
2018-03-08T17:35:12.558Z,100.00
2018-03-08T17:37:40.221Z,100.00
2018-03-08T17:40:07.928Z,100.00
2018-03-08T17:42:35.576Z,100.00
2018-03-08T17:45:03.267Z,100.00
2018-03-08T17:47:30.912Z,100.00
2018-03-08T17:49:58.757Z,100.00
2018-03-08T17:52:26.576Z,100.00
2018-03-08T17:54:54.325Z,100.00
2018-03-08T17:57:22.464Z,100.00
2018-03-08T17:59:50.478Z,100.00
2018-03-08T18:02:18.396Z,100.00
2018-03-08T18:04:46.643Z,100.00
2018-03-08T18:07:15.217Z,100.00
2018-03-08T18:09:43.402Z,100.00
2018-03-08T18:12:11.706Z,100.00
2018-03-08T18:14:40.014Z,100.00
2018-03-08T18:17:07.703Z,100.00
2018-03-08T18:19:35.397Z,100.00
2018-03-08T18:22:03.117Z,100.00
2018-03-08T18:24:30.771Z,100.00
2018-03-08T18:26:58.456Z,100.00
2018-03-08T18:29:26.104Z,100.00
2018-03-08T18:31:53.798Z,100.00
2018-03-08T18:34:21.516Z,100.00
2018-03-08T18:36:49.295Z,100.00
2018-03-08T18:39:16.973Z,100.00
2018-03-08T18:41:44.642Z,100.00
2018-03-08T18:44:12.403Z,100.00
2018-03-08T18:46:40.051Z,100.00
2018-03-08T18:49:07.813Z,100.00
2018-03-08T18:51:35.512Z,100.00
2018-03-08T18:54:03.228Z,100.00
2018-03-08T18:56:30.943Z,100.00
2018-03-08T18:58:58.631Z,100.00
2018-03-08T19:01:26.281Z,100.00
2018-03-08T19:03:53.985Z,100.00
2018-03-08T19:06:21.675Z,100.00
2018-03-08T19:08:49.399Z,100.00
2018-03-08T19:11:17.078Z,100.00
2018-03-08T19:13:44.777Z,100.00
2018-03-08T19:16:12.459Z,100.00
2018-03-08T19:18:40.192Z,100.00
2018-03-08T19:21:07.897Z,100.00
2018-03-08T19:23:35.589Z,100.00
2018-03-08T19:26:03.335Z,100.00
2018-03-08T19:28:31.055Z,100.00
2018-03-08T19:30:58.745Z,100.00
2018-03-08T19:33:26.402Z,100.00
2018-03-08T19:35:54.126Z,100.00
2018-03-08T19:38:21.855Z,100.00
2018-03-08T19:40:49.570Z,100.00
2018-03-08T19:43:17.270Z,100.00
2018-03-08T19:45:44.950Z,100.00
2018-03-08T19:48:12.616Z,100.00
2018-03-08T19:50:40.331Z,100.00
2018-03-08T19:53:08.114Z,100.00
2018-03-08T19:55:35.886Z,100.00
2018-03-08T19:58:03.537Z,100.00
2018-03-08T20:00:31.246Z,100.00
2018-03-08T20:02:58.943Z,100.00
2018-03-08T20:05:26.588Z,100.00
2018-03-08T20:07:54.264Z,100.00
2018-03-08T20:10:21.915Z,100.00
2018-03-08T20:12:49.595Z,100.00
2018-03-08T20:15:17.369Z,100.00
2018-03-08T20:17:45.077Z,100.00
2018-03-08T20:20:12.766Z,100.00
2018-03-08T20:22:40.477Z,100.00
2018-03-08T20:25:08.192Z,100.00
2018-03-08T20:27:35.868Z,100.00
2018-03-08T20:30:03.588Z,100.00
2018-03-08T20:32:31.315Z,100.00
2018-03-08T20:34:59.020Z,100.00
2018-03-08T20:37:26.708Z,100.00
2018-03-08T20:39:54.475Z,100.00
2018-03-08T20:42:22.127Z,100.00
2018-03-08T20:44:49.807Z,100.00
2018-03-08T20:47:17.523Z,100.00
2018-03-08T20:49:45.267Z,100.00
2018-03-08T20:52:13.050Z,100.00
2018-03-08T20:54:40.730Z,100.00
2018-03-08T20:57:08.371Z,100.00
2018-03-08T20:59:36.065Z,100.00
2018-03-08T21:02:03.730Z,100.00
2018-03-08T21:04:31.433Z,100.00
2018-03-08T21:06:59.297Z,100.00
2018-03-08T21:09:26.994Z,100.00
2018-03-08T21:11:54.702Z,100.00
2018-03-08T21:14:22.429Z,100.00
2018-03-08T21:16:50.105Z,100.00
2018-03-08T21:19:17.831Z,100.00
2018-03-08T21:21:45.450Z,100.00
2018-03-08T21:24:13.210Z,100.00
2018-03-08T21:26:41.106Z,100.00
2018-03-08T21:29:09.036Z,100.00
2018-03-08T21:31:36.720Z,100.00
2018-03-08T21:34:04.418Z,100.00
2018-03-08T21:36:32.122Z,100.00
2018-03-08T21:38:59.842Z,100.00
2018-03-08T21:41:27.543Z,100.00
2018-03-08T21:43:55.259Z,100.00
2018-03-08T21:46:23.031Z,100.00
2018-03-08T21:48:50.719Z,100.00
2018-03-08T21:51:18.429Z,100.00
2018-03-08T21:53:46.086Z,100.00
2018-03-08T21:56:13.831Z,100.00
2018-03-08T21:58:41.462Z,100.00
2018-03-08T22:01:09.166Z,100.00
2018-03-08T22:03:36.871Z,100.00
2018-03-08T22:06:04.589Z,100.00
2018-03-08T22:08:32.254Z,100.00
2018-03-08T22:10:59.951Z,100.00
2018-03-08T22:13:27.614Z,100.00
2018-03-08T22:15:55.426Z,100.00
2018-03-08T22:18:23.186Z,100.00
2018-03-08T22:20:50.883Z,100.00
2018-03-08T22:23:18.520Z,100.00
2018-03-08T22:25:46.242Z,100.00
2018-03-08T22:28:13.875Z,100.00
2018-03-08T22:30:41.562Z,100.00
2018-03-08T22:33:09.307Z,100.00
2018-03-08T22:35:36.976Z,100.00
2018-03-08T22:38:04.665Z,100.00
2018-03-08T22:40:32.398Z,100.00
2018-03-08T22:43:00.101Z,100.00
2018-03-08T22:45:27.828Z,100.00
2018-03-08T22:47:55.466Z,100.00
2018-03-08T22:50:23.258Z,100.00
2018-03-08T22:52:50.930Z,100.00
2018-03-08T22:55:18.603Z,100.00
2018-03-08T22:57:46.375Z,100.00
2018-03-08T23:00:14.074Z,100.00
2018-03-08T23:02:41.762Z,100.00
2018-03-08T23:05:09.404Z,100.00
2018-03-08T23:07:37.098Z,100.00
2018-03-08T23:10:04.775Z,100.00
2018-03-08T23:12:32.453Z,100.00
2018-03-08T23:15:00.092Z,100.00
2018-03-08T23:17:28.847Z,100.00
2018-03-08T23:19:56.514Z,100.00
2018-03-08T23:22:24.148Z,100.00
2018-03-08T23:24:51.826Z,100.00
2018-03-08T23:27:19.508Z,100.00
2018-03-08T23:29:47.189Z,100.00
2018-03-08T23:32:14.876Z,100.00
2018-03-08T23:34:42.545Z,100.00
2018-03-08T23:37:10.178Z,100.00
2018-03-08T23:39:37.855Z,100.00
2018-03-08T23:42:05.516Z,100.00
2018-03-08T23:44:33.195Z,100.00
2018-03-08T23:47:00.881Z,100.00
2018-03-08T23:49:28.559Z,100.00
2018-03-08T23:51:56.252Z,100.00
2018-03-08T23:54:23.943Z,100.00
2018-03-08T23:56:51.639Z,100.00
2018-03-08T23:59:19.278Z,100.00
